sensor_id;sensor_type;location;lat;lon;timestamp;pressure;altitude;pressure_sealevel;temperature;humidity
29371;BME280;16357;52.188;7.838;2023-10-13T00:00:27;100491.38;;;19.42;73.45
29371;BME280;16357;52.188;7.838;2023-10-13T00:02:57;100488.66;;;19.42;73.51
29371;BME280;16357;52.188;7.838;2023-10-13T00:05:30;100484.28;;;19.41;73.50
29371;BME280;16357;52.188;7.838;2023-10-13T00:07:58;100485.31;;;19.40;73.68
29371;BME280;16357;52.188;7.838;2023-10-13T00:10:30;100483.66;;;19.39;73.53
29371;BME280;16357;52.188;7.838;2023-10-13T00:12:57;100472.78;;;19.39;73.37
29371;BME280;16357;52.188;7.838;2023-10-13T00:15:42;100476.31;;;19.39;73.67
29371;BME280;16357;52.188;7.838;2023-10-13T00:18:28;100476.53;;;19.38;73.60
29371;BME280;16357;52.188;7.838;2023-10-13T00:21:08;100471.09;;;19.38;73.59
29371;BME280;16357;52.188;7.838;2023-10-13T00:23:46;100474.66;;;19.38;73.86
29371;BME280;16357;52.188;7.838;2023-10-13T00:26:23;100466.50;;;19.38;73.78
29371;BME280;16357;52.188;7.838;2023-10-13T00:29:00;100467.34;;;19.39;73.79
29371;BME280;16357;52.188;7.838;2023-10-13T00:31:34;100463.78;;;19.38;73.58
29371;BME280;16357;52.188;7.838;2023-10-13T00:34:03;100459.38;;;19.37;73.98
29371;BME280;16357;52.188;7.838;2023-10-13T00:36:38;100465.66;;;19.38;74.06
29371;BME280;16357;52.188;7.838;2023-10-13T00:39:24;100463.56;;;19.40;73.94
29371;BME280;16357;52.188;7.838;2023-10-13T00:41:50;100453.50;;;19.40;74.01
29371;BME280;16357;52.188;7.838;2023-10-13T00:44:19;100454.34;;;19.41;74.09
29371;BME280;16357;52.188;7.838;2023-10-13T00:46:54;100452.22;;;19.43;74.19
29371;BME280;16357;52.188;7.838;2023-10-13T00:49:23;100448.47;;;19.44;74.09
29371;BME280;16357;52.188;7.838;2023-10-13T00:51:50;100446.38;;;19.46;74.11
29371;BME280;16357;52.188;7.838;2023-10-13T00:54:17;100440.91;;;19.46;74.08
29371;BME280;16357;52.188;7.838;2023-10-13T00:56:45;100433.34;;;19.48;74.08
29371;BME280;16357;52.188;7.838;2023-10-13T00:59:33;100437.75;;;19.49;74.41
29371;BME280;16357;52.188;7.838;2023-10-13T01:02:00;100435.84;;;19.49;74.12
29371;BME280;16357;52.188;7.838;2023-10-13T01:04:48;100438.38;;;19.51;73.97
29371;BME280;16357;52.188;7.838;2023-10-13T01:07:15;100425.81;;;19.50;74.12
29371;BME280;16357;52.188;7.838;2023-10-13T01:09:42;100424.75;;;19.51;74.09
29371;BME280;16357;52.188;7.838;2023-10-13T01:12:08;100422.03;;;19.51;74.20
29371;BME280;16357;52.188;7.838;2023-10-13T01:14:35;100416.59;;;19.51;74.05
29371;BME280;16357;52.188;7.838;2023-10-13T01:17:02;100419.06;;;19.52;74.17
29371;BME280;16357;52.188;7.838;2023-10-13T01:19:35;100413.44;;;19.54;73.98
29371;BME280;16357;52.188;7.838;2023-10-13T01:22:05;100410.72;;;19.54;74.30
29371;BME280;16357;52.188;7.838;2023-10-13T01:24:33;100412.34;;;19.55;74.31
29371;BME280;16357;52.188;7.838;2023-10-13T01:27:06;100415.69;;;19.57;73.96
29371;BME280;16357;52.188;7.838;2023-10-13T01:29:47;100408.34;;;19.58;74.08
29371;BME280;16357;52.188;7.838;2023-10-13T01:32:19;100408.16;;;19.59;73.78
29371;BME280;16357;52.188;7.838;2023-10-13T01:34:46;100402.72;;;19.59;73.81
29371;BME280;16357;52.188;7.838;2023-10-13T01:37:14;100398.09;;;19.60;74.02
29371;BME280;16357;52.188;7.838;2023-10-13T01:39:42;100398.09;;;19.60;74.33
29371;BME280;16357;52.188;7.838;2023-10-13T01:42:13;100398.91;;;19.60;74.12
29371;BME280;16357;52.188;7.838;2023-10-13T01:44:45;100395.13;;;19.61;74.12
29371;BME280;16357;52.188;7.838;2023-10-13T01:47:12;100389.69;;;19.61;74.04
29371;BME280;16357;52.188;7.838;2023-10-13T01:49:39;100391.38;;;19.62;73.98
29371;BME280;16357;52.188;7.838;2023-10-13T01:52:09;100385.91;;;19.62;73.88
29371;BME280;16357;52.188;7.838;2023-10-13T01:54:38;100387.81;;;19.62;73.84
29371;BME280;16357;52.188;7.838;2023-10-13T01:57:07;100388.41;;;19.64;73.93
29371;BME280;16357;52.188;7.838;2023-10-13T01:59:34;100389.25;;;19.64;73.53
29371;BME280;16357;52.188;7.838;2023-10-13T02:02:10;100378.38;;;19.64;73.77
29371;BME280;16357;52.188;7.838;2023-10-13T02:04:39;100376.28;;;19.66;73.88
29371;BME280;16357;52.188;7.838;2023-10-13T02:07:15;100375.41;;;19.66;73.78
29371;BME280;16357;52.188;7.838;2023-10-13T02:09:43;100367.25;;;19.66;73.69
29371;BME280;16357;52.188;7.838;2023-10-13T02:12:09;100372.50;;;19.67;73.77
29371;BME280;16357;52.188;7.838;2023-10-13T02:14:36;100364.34;;;19.67;73.42
29371;BME280;16357;52.188;7.838;2023-10-13T02:17:04;100357.22;;;19.66;73.65
29371;BME280;16357;52.188;7.838;2023-10-13T02:19:40;100361.63;;;19.67;73.69
29371;BME280;16357;52.188;7.838;2023-10-13T02:22:12;100361.38;;;19.69;73.48
29371;BME280;16357;52.188;7.838;2023-10-13T02:24:50;100350.50;;;19.69;73.56
29371;BME280;16357;52.188;7.838;2023-10-13T02:27:18;100356.75;;;19.69;73.52
29371;BME280;16357;52.188;7.838;2023-10-13T02:29:49;100349.44;;;19.70;73.60
29371;BME280;16357;52.188;7.838;2023-10-13T02:32:16;100342.13;;;19.70;73.63
29371;BME280;16357;52.188;7.838;2023-10-13T02:34:45;100333.94;;;19.70;73.64
29371;BME280;16357;52.188;7.838;2023-10-13T02:37:12;100331.22;;;19.70;73.57
29371;BME280;16357;52.188;7.838;2023-10-13T02:39:40;100325.78;;;19.70;73.63
29371;BME280;16357;52.188;7.838;2023-10-13T02:42:08;100332.25;;;19.69;73.63
29371;BME280;16357;52.188;7.838;2023-10-13T02:44:35;100323.28;;;19.69;73.65
29371;BME280;16357;52.188;7.838;2023-10-13T02:47:03;100315.94;;;19.69;73.73
29371;BME280;16357;52.188;7.838;2023-10-13T02:49:40;100316.78;;;19.70;73.77
29371;BME280;16357;52.188;7.838;2023-10-13T02:52:12;100310.50;;;19.69;73.54
29371;BME280;16357;52.188;7.838;2023-10-13T02:54:40;100317.63;;;19.70;73.66
29371;BME280;16357;52.188;7.838;2023-10-13T02:57:13;100312.19;;;19.70;73.72
29371;BME280;16357;52.188;7.838;2023-10-13T02:59:42;100306.72;;;19.70;73.67
29371;BME280;16357;52.188;7.838;2023-10-13T03:02:21;100310.28;;;19.71;73.72
29371;BME280;16357;52.188;7.838;2023-10-13T03:04:54;100295.59;;;19.72;73.82
29371;BME280;16357;52.188;7.838;2023-10-13T03:07:36;100301.28;;;19.70;73.56
29371;BME280;16357;52.188;7.838;2023-10-13T03:10:03;100293.94;;;19.71;73.51
29371;BME280;16357;52.188;7.838;2023-10-13T03:12:37;100291.22;;;19.71;73.62
29371;BME280;16357;52.188;7.838;2023-10-13T03:15:05;100298.56;;;19.70;73.49
29371;BME280;16357;52.188;7.838;2023-10-13T03:17:44;100292.06;;;19.71;73.89
29371;BME280;16357;52.188;7.838;2023-10-13T03:20:13;100292.06;;;19.71;73.62
29371;BME280;16357;52.188;7.838;2023-10-13T03:22:44;100283.66;;;19.73;73.61
29371;BME280;16357;52.188;7.838;2023-10-13T03:25:12;100283.88;;;19.71;73.66
29371;BME280;16357;52.188;7.838;2023-10-13T03:27:56;100276.53;;;19.72;73.64
29371;BME280;16357;52.188;7.838;2023-10-13T03:30:27;100277.41;;;19.72;73.46
29371;BME280;16357;52.188;7.838;2023-10-13T03:33:10;100277.41;;;19.72;73.40
29371;BME280;16357;52.188;7.838;2023-10-13T03:35:41;100263.78;;;19.72;73.52
29371;BME280;16357;52.188;7.838;2023-10-13T03:38:09;100254.56;;;19.73;73.62
29371;BME280;16357;52.188;7.838;2023-10-13T03:40:46;100265.22;;;19.75;73.57
29371;BME280;16357;52.188;7.838;2023-10-13T03:43:23;100266.06;;;19.76;73.49
29371;BME280;16357;52.188;7.838;2023-10-13T03:45:55;100256.81;;;19.77;73.51
29371;BME280;16357;52.188;7.838;2023-10-13T03:48:34;100253.88;;;19.78;73.51
29371;BME280;16357;52.188;7.838;2023-10-13T03:51:18;100259.06;;;19.80;73.43
29371;BME280;16357;52.188;7.838;2023-10-13T03:53:45;100260.75;;;19.81;73.38
29371;BME280;16357;52.188;7.838;2023-10-13T03:56:25;100261.38;;;19.83;73.21
29371;BME280;16357;52.188;7.838;2023-10-13T03:59:06;100252.59;;;19.81;73.33
29371;BME280;16357;52.188;7.838;2023-10-13T04:01:36;100248.78;;;19.82;73.27
29371;BME280;16357;52.188;7.838;2023-10-13T04:04:18;100247.97;;;19.81;73.44
29371;BME280;16357;52.188;7.838;2023-10-13T04:07:10;100246.91;;;19.82;73.24
29371;BME280;16357;52.188;7.838;2023-10-13T04:09:37;100237.91;;;19.82;73.42
29371;BME280;16357;52.188;7.838;2023-10-13T04:12:07;100233.28;;;19.82;73.43
29371;BME280;16357;52.188;7.838;2023-10-13T04:14:53;100238.72;;;19.82;73.32
29371;BME280;16357;52.188;7.838;2023-10-13T04:17:22;100236.88;;;19.83;73.14
29371;BME280;16357;52.188;7.838;2023-10-13T04:19:50;100227.84;;;19.82;73.45
29371;BME280;16357;52.188;7.838;2023-10-13T04:22:39;100227.63;;;19.84;73.23
29371;BME280;16357;52.188;7.838;2023-10-13T04:25:13;100216.72;;;19.84;73.59
29371;BME280;16357;52.188;7.838;2023-10-13T04:27:58;100194.13;;;19.83;73.38
29371;BME280;16357;52.188;7.838;2023-10-13T04:30:50;100198.50;;;19.84;73.26
29371;BME280;16357;52.188;7.838;2023-10-13T04:33:27;100194.97;;;19.84;73.43
29371;BME280;16357;52.188;7.838;2023-10-13T04:38:41;100190.59;;;19.83;73.23
29371;BME280;16357;52.188;7.838;2023-10-13T04:41:28;100176.72;;;19.84;73.29
29371;BME280;16357;52.188;7.838;2023-10-13T04:44:14;100175.91;;;19.84;73.34
29371;BME280;16357;52.188;7.838;2023-10-13T04:46:57;100160.66;;;19.83;73.41
29371;BME280;16357;52.188;7.838;2023-10-13T04:49:29;100160.41;;;19.84;73.47
29371;BME280;16357;52.188;7.838;2023-10-13T04:52:16;100147.84;;;19.83;73.35
29371;BME280;16357;52.188;7.838;2023-10-13T04:55:02;100129.84;;;19.82;73.27
29371;BME280;16357;52.188;7.838;2023-10-13T04:57:49;100138.00;;;19.82;73.65
29371;BME280;16357;52.188;7.838;2023-10-13T05:00:37;100139.91;;;19.82;73.44
29371;BME280;16357;52.188;7.838;2023-10-13T05:03:42;100127.38;;;19.81;73.54
29371;BME280;16357;52.188;7.838;2023-10-13T05:06:41;100132.81;;;19.81;73.36
29371;BME280;16357;52.188;7.838;2023-10-13T05:09:11;100137.44;;;19.80;73.46
29371;BME280;16357;52.188;7.838;2023-10-13T05:11:56;100129.50;;;19.79;73.40
29371;BME280;16357;52.188;7.838;2023-10-13T05:14:41;100123.22;;;19.78;73.55
29371;BME280;16357;52.188;7.838;2023-10-13T05:17:26;100124.28;;;19.77;73.56
29371;BME280;16357;52.188;7.838;2023-10-13T05:20:11;100120.72;;;19.77;73.43
29371;BME280;16357;52.188;7.838;2023-10-13T05:22:56;100116.34;;;19.76;73.61
29371;BME280;16357;52.188;7.838;2023-10-13T05:25:41;100122.00;;;19.74;73.44
29371;BME280;16357;52.188;7.838;2023-10-13T05:28:26;100113.03;;;19.73;73.63
29371;BME280;16357;52.188;7.838;2023-10-13T05:31:11;100103.22;;;19.72;73.40
29371;BME280;16357;52.188;7.838;2023-10-13T05:33:56;100102.59;;;19.70;73.11
29371;BME280;16357;52.188;7.838;2023-10-13T05:36:41;100098.00;;;19.71;73.20
29371;BME280;16357;52.188;7.838;2023-10-13T05:39:26;100084.59;;;19.69;73.12
29371;BME280;16357;52.188;7.838;2023-10-13T05:42:11;100064.97;;;19.67;73.16
29371;BME280;16357;52.188;7.838;2023-10-13T05:44:56;100066.03;;;19.66;72.74
29371;BME280;16357;52.188;7.838;2023-10-13T05:47:35;100058.72;;;19.67;72.93
29371;BME280;16357;52.188;7.838;2023-10-13T05:50:06;100054.09;;;19.67;73.01
29371;BME280;16357;52.188;7.838;2023-10-13T05:52:48;100049.69;;;19.66;73.15
29371;BME280;16357;52.188;7.838;2023-10-13T05:55:28;100058.47;;;19.68;73.05
29371;BME280;16357;52.188;7.838;2023-10-13T05:58:14;100049.47;;;19.68;73.26
29371;BME280;16357;52.188;7.838;2023-10-13T06:01:19;100050.06;;;19.70;73.15
29371;BME280;16357;52.188;7.838;2023-10-13T06:04:04;100043.78;;;19.69;73.28
29371;BME280;16357;52.188;7.838;2023-10-13T06:06:49;100044.63;;;19.70;73.44
29371;BME280;16357;52.188;7.838;2023-10-13T06:09:34;100037.28;;;19.70;73.55
29371;BME280;16357;52.188;7.838;2023-10-13T06:12:19;100037.28;;;19.70;73.56
29371;BME280;16357;52.188;7.838;2023-10-13T06:15:04;100029.13;;;19.70;73.60
29371;BME280;16357;52.188;7.838;2023-10-13T06:17:49;100027.22;;;19.71;73.63
29371;BME280;16357;52.188;7.838;2023-10-13T06:20:38;100031.59;;;19.72;73.96
29371;BME280;16357;52.188;7.838;2023-10-13T06:23:23;100012.53;;;19.72;73.84
29371;BME280;16357;52.188;7.838;2023-10-13T06:26:22;100021.31;;;19.74;73.99
29371;BME280;16357;52.188;7.838;2023-10-13T06:29:07;100024.03;;;19.74;73.98
29371;BME280;16357;52.188;7.838;2023-10-13T06:31:34;100023.00;;;19.75;74.34
29371;BME280;16357;52.188;7.838;2023-10-13T06:34:01;100008.53;;;19.74;74.20
29371;BME280;16357;52.188;7.838;2023-10-13T06:36:29;100004.75;;;19.76;74.12
29371;BME280;16357;52.188;7.838;2023-10-13T06:38:56;100004.50;;;19.77;74.41
29371;BME280;16357;52.188;7.838;2023-10-13T06:41:42;100008.22;;;19.83;74.22
29371;BME280;16357;52.188;7.838;2023-10-13T06:44:10;100004.63;;;19.82;74.26
29371;BME280;16357;52.188;7.838;2023-10-13T06:46:42;100010.94;;;19.83;74.27
29371;BME280;16357;52.188;7.838;2023-10-13T06:49:10;100012.56;;;19.84;74.53
29371;BME280;16357;52.188;7.838;2023-10-13T06:51:39;100011.50;;;19.85;74.64
29371;BME280;16357;52.188;7.838;2023-10-13T06:54:06;100014.22;;;19.85;74.79
29371;BME280;16357;52.188;7.838;2023-10-13T06:56:45;100014.81;;;19.87;74.72
29371;BME280;16357;52.188;7.838;2023-10-13T06:59:12;100013.75;;;19.88;75.05
29371;BME280;16357;52.188;7.838;2023-10-13T07:01:40;100007.25;;;19.89;75.00
29371;BME280;16357;52.188;7.838;2023-10-13T07:04:08;100016.03;;;19.91;75.20
29371;BME280;16357;52.188;7.838;2023-10-13T07:06:42;100016.84;;;19.91;75.32
29371;BME280;16357;52.188;7.838;2023-10-13T07:09:10;100025.63;;;19.93;75.38
29371;BME280;16357;52.188;7.838;2023-10-13T07:11:54;100027.88;;;19.97;75.47
29371;BME280;16357;52.188;7.838;2023-10-13T07:14:20;100027.38;;;20.00;75.48
29371;BME280;16357;52.188;7.838;2023-10-13T07:16:57;100032.94;;;20.05;75.71
29371;BME280;16357;52.188;7.838;2023-10-13T07:19:27;100021.59;;;20.08;75.56
29371;BME280;16357;52.188;7.838;2023-10-13T07:21:58;100019.19;;;20.11;75.61
29371;BME280;16357;52.188;7.838;2023-10-13T07:24:26;100013.31;;;20.14;75.63
29371;BME280;16357;52.188;7.838;2023-10-13T07:27:00;100009.03;;;20.18;75.66
29371;BME280;16357;52.188;7.838;2023-10-13T07:29:32;100006.41;;;20.24;75.47
29371;BME280;16357;52.188;7.838;2023-10-13T07:32:02;100012.22;;;20.27;75.50
29371;BME280;16357;52.188;7.838;2023-10-13T07:34:29;100011.75;;;20.30;75.10
29371;BME280;16357;52.188;7.838;2023-10-13T07:36:59;100012.09;;;20.34;75.14
29371;BME280;16357;52.188;7.838;2023-10-13T07:39:30;100010.56;;;20.38;75.28
29371;BME280;16357;52.188;7.838;2023-10-13T07:42:01;100007.34;;;20.41;74.91
29371;BME280;16357;52.188;7.838;2023-10-13T07:44:34;100005.78;;;20.45;75.30
29371;BME280;16357;52.188;7.838;2023-10-13T07:47:02;100004.25;;;20.49;75.11
29371;BME280;16357;52.188;7.838;2023-10-13T07:49:37;100016.31;;;20.53;75.08
29371;BME280;16357;52.188;7.838;2023-10-13T07:52:09;100020.28;;;20.57;75.01
29371;BME280;16357;52.188;7.838;2023-10-13T07:54:46;99996.34;;;20.59;75.03
29371;BME280;16357;52.188;7.838;2023-10-13T07:57:32;100007.34;;;20.65;75.26
29371;BME280;16357;52.188;7.838;2023-10-13T07:59:59;100003.88;;;20.69;75.20
29371;BME280;16357;52.188;7.838;2023-10-13T08:03:01;100005.41;;;20.77;75.01
29371;BME280;16357;52.188;7.838;2023-10-13T08:05:56;99993.19;;;20.79;74.93
29371;BME280;16357;52.188;7.838;2023-10-13T08:08:33;99993.53;;;20.83;74.75
29371;BME280;16357;52.188;7.838;2023-10-13T08:11:07;99994.69;;;20.87;74.70
29371;BME280;16357;52.188;7.838;2023-10-13T08:13:39;99995.88;;;20.91;74.69
29371;BME280;16357;52.188;7.838;2023-10-13T08:16:29;99992.44;;;20.96;74.80
29371;BME280;16357;52.188;7.838;2023-10-13T08:19:27;99985.19;;;21.01;74.51
29371;BME280;16357;52.188;7.838;2023-10-13T08:21:55;99995.09;;;21.08;74.64
29371;BME280;16357;52.188;7.838;2023-10-13T08:24:26;99988.31;;;21.10;74.62
29371;BME280;16357;52.188;7.838;2023-10-13T08:27:17;99983.78;;;21.16;74.36
29371;BME280;16357;52.188;7.838;2023-10-13T08:30:04;99983.06;;;21.20;73.97
29371;BME280;16357;52.188;7.838;2023-10-13T08:32:49;99971.66;;;21.23;73.87
29371;BME280;16357;52.188;7.838;2023-10-13T08:35:24;99961.06;;;21.27;73.78
29371;BME280;16357;52.188;7.838;2023-10-13T08:37:57;99957.03;;;21.30;73.87
29371;BME280;16357;52.188;7.838;2023-10-13T08:40:50;99963.38;;;21.35;73.80
29371;BME280;16357;52.188;7.838;2023-10-13T08:43:42;99937.31;;;21.39;73.67
29371;BME280;16357;52.188;7.838;2023-10-13T08:46:11;99926.72;;;21.43;73.44
29371;BME280;16357;52.188;7.838;2023-10-13T08:48:55;99934.16;;;21.47;73.13
29371;BME280;16357;52.188;7.838;2023-10-13T08:51:34;99928.19;;;21.51;72.62
29371;BME280;16357;52.188;7.838;2023-10-13T08:54:15;99920.09;;;21.56;72.81
29371;BME280;16357;52.188;7.838;2023-10-13T08:56:47;99909.19;;;21.56;72.84
29371;BME280;16357;52.188;7.838;2023-10-13T08:59:21;99907.03;;;21.58;72.60
29371;BME280;16357;52.188;7.838;2023-10-13T09:02:13;99903.28;;;21.64;72.65
29371;BME280;16357;52.188;7.838;2023-10-13T09:04:44;99900.09;;;21.67;72.64
29371;BME280;16357;52.188;7.838;2023-10-13T09:07:11;99897.41;;;21.72;72.53
29371;BME280;16357;52.188;7.838;2023-10-13T09:09:49;99893.09;;;21.76;72.23
29371;BME280;16357;52.188;7.838;2023-10-13T09:12:24;99877.91;;;21.80;72.23
29371;BME280;16357;52.188;7.838;2023-10-13T09:15:02;99880.69;;;21.85;72.18
29371;BME280;16357;52.188;7.838;2023-10-13T09:17:43;99879.91;;;21.90;72.23
29371;BME280;16357;52.188;7.838;2023-10-13T09:20:16;99857.31;;;21.95;71.83
29371;BME280;16357;52.188;7.838;2023-10-13T09:22:53;99872.69;;;22.01;71.88
29371;BME280;16357;52.188;7.838;2023-10-13T09:25:29;99862.91;;;22.05;72.06
29371;BME280;16357;52.188;7.838;2023-10-13T09:28:10;99860.84;;;22.12;72.00
29371;BME280;16357;52.188;7.838;2023-10-13T09:30:49;99847.56;;;22.21;72.28
29371;BME280;16357;52.188;7.838;2023-10-13T09:33:29;99850.66;;;22.29;71.87
29371;BME280;16357;52.188;7.838;2023-10-13T09:35:59;99847.47;;;22.38;71.36
29371;BME280;16357;52.188;7.838;2023-10-13T09:38:29;99843.22;;;22.47;71.61
29371;BME280;16357;52.188;7.838;2023-10-13T09:40:58;99829.91;;;22.55;71.33
29371;BME280;16357;52.188;7.838;2023-10-13T09:43:28;99845.59;;;22.65;71.54
29371;BME280;16357;52.188;7.838;2023-10-13T09:46:00;99827.09;;;22.77;71.44
29371;BME280;16357;52.188;7.838;2023-10-13T09:48:34;99829.69;;;22.89;70.76
29371;BME280;16357;52.188;7.838;2023-10-13T09:51:03;99829.00;;;22.99;70.61
29371;BME280;16357;52.188;7.838;2023-10-13T09:53:35;99831.81;;;23.09;69.88
29371;BME280;16357;52.188;7.838;2023-10-13T09:56:28;99821.47;;;23.21;69.35
29371;BME280;16357;52.188;7.838;2023-10-13T09:59:01;99816.09;;;23.32;69.11
29371;BME280;16357;52.188;7.838;2023-10-13T10:01:40;99819.16;;;23.40;68.24
29371;BME280;16357;52.188;7.838;2023-10-13T10:04:17;99824.41;;;23.47;68.16
29371;BME280;16357;52.188;7.838;2023-10-13T10:06:56;99817.06;;;23.58;67.93
29371;BME280;16357;52.188;7.838;2023-10-13T10:09:27;99813.56;;;23.67;67.66
29371;BME280;16357;52.188;7.838;2023-10-13T10:12:09;99809.25;;;23.77;67.33
29371;BME280;16357;52.188;7.838;2023-10-13T10:17:54;99815.09;;;24.01;65.24
29371;BME280;16357;52.188;7.838;2023-10-13T10:20:32;99807.75;;;24.12;65.34
29371;BME280;16357;52.188;7.838;2023-10-13T10:23:06;99797.38;;;24.19;64.97
29371;BME280;16357;52.188;7.838;2023-10-13T10:25:48;99795.75;;;24.28;63.02
29371;BME280;16357;52.188;7.838;2023-10-13T10:28:18;99804.00;;;24.33;63.30
29371;BME280;16357;52.188;7.838;2023-10-13T10:30:46;99777.66;;;24.37;63.43
29371;BME280;16357;52.188;7.838;2023-10-13T10:33:13;99792.50;;;24.41;63.16
29371;BME280;16357;52.188;7.838;2023-10-13T10:35:44;99784.31;;;24.46;62.96
29371;BME280;16357;52.188;7.838;2023-10-13T10:40:52;99772.81;;;24.55;61.00
29371;BME280;16357;52.188;7.838;2023-10-13T10:43:29;99774.69;;;24.59;60.89
29371;BME280;16357;52.188;7.838;2023-10-13T10:46:10;99768.41;;;24.64;60.55
29371;BME280;16357;52.188;7.838;2023-10-13T10:48:40;99766.47;;;24.69;60.11
29371;BME280;16357;52.188;7.838;2023-10-13T10:51:14;99759.63;;;24.77;60.62
29371;BME280;16357;52.188;7.838;2023-10-13T10:53:54;99749.47;;;24.83;59.83
29371;BME280;16357;52.188;7.838;2023-10-13T10:56:23;99756.88;;;24.87;59.04
29371;BME280;16357;52.188;7.838;2023-10-13T10:59:05;99765.66;;;24.94;59.43
29371;BME280;16357;52.188;7.838;2023-10-13T11:01:42;99747.28;;;25.00;58.94
29371;BME280;16357;52.188;7.838;2023-10-13T11:04:14;99740.97;;;25.05;58.91
29371;BME280;16357;52.188;7.838;2023-10-13T11:06:53;99736.84;;;25.12;58.36
29371;BME280;16357;52.188;7.838;2023-10-13T11:09:28;99733.00;;;25.18;57.70
29371;BME280;16357;52.188;7.838;2023-10-13T11:14:32;99725.84;;;25.28;57.00
29371;BME280;16357;52.188;7.838;2023-10-13T11:16:59;99736.28;;;25.31;56.07
29371;BME280;16357;52.188;7.838;2023-10-13T11:19:41;99718.41;;;25.33;56.40
29371;BME280;16357;52.188;7.838;2023-10-13T11:25:04;99714.00;;;25.37;55.68
29371;BME280;16357;52.188;7.838;2023-10-13T11:27:37;99697.53;;;25.37;54.53
29371;BME280;16357;52.188;7.838;2023-10-13T11:30:23;99694.78;;;25.37;55.16
29371;BME280;16357;52.188;7.838;2023-10-13T11:33:04;99687.66;;;25.36;54.73
29371;BME280;16357;52.188;7.838;2023-10-13T11:35:35;99690.41;;;25.36;54.37
29371;BME280;16357;52.188;7.838;2023-10-13T11:43:26;99666.78;;;25.35;54.56
29371;BME280;16357;52.188;7.838;2023-10-13T11:45:53;99673.94;;;25.36;54.46
29371;BME280;16357;52.188;7.838;2023-10-13T11:48:23;99668.44;;;25.36;54.29
29371;BME280;16357;52.188;7.838;2023-10-13T11:51:01;99653.59;;;25.37;53.78
29371;BME280;16357;52.188;7.838;2023-10-13T11:53:31;99658.00;;;25.38;53.65
29371;BME280;16357;52.188;7.838;2023-10-13T11:55:58;99648.38;;;25.41;53.44
29371;BME280;16357;52.188;7.838;2023-10-13T11:58:24;99653.56;;;25.43;53.58
29371;BME280;16357;52.188;7.838;2023-10-13T12:00:51;99653.00;;;25.46;53.61
29371;BME280;16357;52.188;7.838;2023-10-13T12:03:20;99647.50;;;25.51;53.52
29371;BME280;16357;52.188;7.838;2023-10-13T12:06:08;99651.03;;;25.56;53.42
29371;BME280;16357;52.188;7.838;2023-10-13T12:08:48;99635.63;;;25.60;52.60
29371;BME280;16357;52.188;7.838;2023-10-13T12:11:19;99641.91;;;25.66;53.02
29371;BME280;16357;52.188;7.838;2023-10-13T12:13:57;99634.75;;;25.70;52.68
29371;BME280;16357;52.188;7.838;2023-10-13T12:16:24;99634.19;;;25.73;52.71
29371;BME280;16357;52.188;7.838;2023-10-13T12:19:01;99618.75;;;25.77;52.94
29371;BME280;16357;52.188;7.838;2023-10-13T12:21:27;99631.97;;;25.80;52.13
29371;BME280;16357;52.188;7.838;2023-10-13T12:23:55;99620.38;;;25.83;52.18
29371;BME280;16357;52.188;7.838;2023-10-13T12:26:21;99626.44;;;25.86;51.85
29371;BME280;16357;52.188;7.838;2023-10-13T12:28:59;99601.44;;;25.87;52.14
29371;BME280;16357;52.188;7.838;2023-10-13T12:31:33;99588.22;;;25.89;51.50
29371;BME280;16357;52.188;7.838;2023-10-13T12:34:05;99596.47;;;25.89;51.52
29371;BME280;16357;52.188;7.838;2023-10-13T12:36:46;99599.22;;;25.89;51.94
29371;BME280;16357;52.188;7.838;2023-10-13T12:39:31;99589.59;;;25.92;51.69
29371;BME280;16357;52.188;7.838;2023-10-13T12:42:16;99582.97;;;25.93;51.66
29371;BME280;16357;52.188;7.838;2023-10-13T12:45:01;99581.88;;;25.94;51.75
29371;BME280;16357;52.188;7.838;2023-10-13T12:47:46;99575.84;;;25.92;52.00
29371;BME280;16357;52.188;7.838;2023-10-13T12:50:33;99559.34;;;25.92;51.40
29371;BME280;16357;52.188;7.838;2023-10-13T12:53:10;99572.28;;;25.91;51.58
29371;BME280;16357;52.188;7.838;2023-10-13T12:55:40;99572.28;;;25.91;51.39
29371;BME280;16357;52.188;7.838;2023-10-13T12:58:07;99560.97;;;25.93;50.84
29371;BME280;16357;52.188;7.838;2023-10-13T13:00:34;99544.50;;;25.93;51.05
29371;BME280;16357;52.188;7.838;2023-10-13T13:03:01;99563.72;;;25.93;51.29
29371;BME280;16357;52.188;7.838;2023-10-13T13:05:37;99556.03;;;25.95;51.47
29371;BME280;16357;52.188;7.838;2023-10-13T13:08:10;99555.75;;;25.96;51.38
29371;BME280;16357;52.188;7.838;2023-10-13T13:10:38;99551.59;;;25.99;51.86
29371;BME280;16357;52.188;7.838;2023-10-13T13:13:05;99549.91;;;26.03;51.73
29371;BME280;16357;52.188;7.838;2023-10-13T13:15:32;99559.75;;;26.09;52.02
29371;BME280;16357;52.188;7.838;2023-10-13T13:17:58;99546.50;;;26.16;51.06
29371;BME280;16357;52.188;7.838;2023-10-13T13:20:39;99530.47;;;26.23;51.30
29371;BME280;16357;52.188;7.838;2023-10-13T13:23:05;99523.53;;;26.31;50.89
29371;BME280;16357;52.188;7.838;2023-10-13T13:25:32;99539.69;;;26.38;50.15
29371;BME280;16357;52.188;7.838;2023-10-13T13:27:59;99542.38;;;26.43;50.06
29371;BME280;16357;52.188;7.838;2023-10-13T13:30:31;99532.44;;;26.47;49.80
29371;BME280;16357;52.188;7.838;2023-10-13T13:33:01;99534.06;;;26.53;49.32
29371;BME280;16357;52.188;7.838;2023-10-13T13:35:38;99543.88;;;26.59;49.27
29371;BME280;16357;52.188;7.838;2023-10-13T13:38:04;99539.97;;;26.65;49.01
29371;BME280;16357;52.188;7.838;2023-10-13T13:40:43;99540.44;;;26.73;48.73
29371;BME280;16357;52.188;7.838;2023-10-13T13:43:15;99527.66;;;26.82;48.28
29371;BME280;16357;52.188;7.838;2023-10-13T13:45:59;99547.94;;;26.91;48.55
29371;BME280;16357;52.188;7.838;2023-10-13T13:48:29;99540.94;;;26.99;48.20
29371;BME280;16357;52.188;7.838;2023-10-13T13:50:57;99520.78;;;27.03;47.65
29371;BME280;16357;52.188;7.838;2023-10-13T13:53:31;99530.09;;;27.07;47.34
29371;BME280;16357;52.188;7.838;2023-10-13T13:56:04;99528.69;;;27.10;46.33